sensor_id;sensor_type;location;lat;lon;timestamp;P1;durP1;ratioP1;P2;durP2;ratioP2
4794;SDS011;2411;47.060;15.064;2023-03-01T00:01:02;21.23;;;14.00;;
4794;SDS011;2411;47.060;15.064;2023-03-01T00:03:34;22.57;;;12.80;;
4794;SDS011;2411;47.060;15.064;2023-03-01T00:06:02;19.57;;;11.57;;
4794;SDS011;2411;47.060;15.064;2023-03-01T00:08:30;15.80;;;11.33;;
4794;SDS011;2411;47.060;15.064;2023-03-01T00:13:32;12.80;;;10.00;;
4794;SDS011;2411;47.060;15.064;2023-03-01T00:16:04;13.80;;;9.27;;
4794;SDS011;2411;47.060;15.064;2023-03-01T00:18:33;17.67;;;11.00;;
4794;SDS011;2411;47.060;15.064;2023-03-01T00:21:01;12.90;;;9.57;;
4794;SDS011;2411;47.060;15.064;2023-03-01T00:23:28;12.67;;;9.87;;
4794;SDS011;2411;47.060;15.064;2023-03-01T00:25:56;11.47;;;9.80;;
4794;SDS011;2411;47.060;15.064;2023-03-01T00:28:23;13.37;;;9.13;;
4794;SDS011;2411;47.060;15.064;2023-03-01T00:30:50;14.90;;;10.07;;
4794;SDS011;2411;47.060;15.064;2023-03-01T00:33:17;14.03;;;11.07;;
4794;SDS011;2411;47.060;15.064;2023-03-01T00:35:45;21.40;;;11.20;;
4794;SDS011;2411;47.060;15.064;2023-03-01T00:38:12;14.57;;;10.80;;
4794;SDS011;2411;47.060;15.064;2023-03-01T00:40:39;14.73;;;10.87;;
4794;SDS011;2411;47.060;15.064;2023-03-01T00:43:06;15.00;;;10.47;;
4794;SDS011;2411;47.060;15.064;2023-03-01T00:45:34;19.67;;;11.70;;
4794;SDS011;2411;47.060;15.064;2023-03-01T00:48:01;12.53;;;10.40;;
4794;SDS011;2411;47.060;15.064;2023-03-01T00:50:30;17.90;;;11.40;;
4794;SDS011;2411;47.060;15.064;2023-03-01T00:52:57;16.03;;;10.63;;
4794;SDS011;2411;47.060;15.064;2023-03-01T00:55:24;14.07;;;11.07;;
4794;SDS011;2411;47.060;15.064;2023-03-01T00:57:51;13.57;;;11.00;;
4794;SDS011;2411;47.060;15.064;2023-03-01T01:00:19;15.07;;;10.33;;
4794;SDS011;2411;47.060;15.064;2023-03-01T01:02:46;16.80;;;10.23;;
4794;SDS011;2411;47.060;15.064;2023-03-01T01:05:14;13.97;;;10.77;;
4794;SDS011;2411;47.060;15.064;2023-03-01T01:07:47;15.83;;;11.83;;
4794;SDS011;2411;47.060;15.064;2023-03-01T01:10:15;15.23;;;11.60;;
4794;SDS011;2411;47.060;15.064;2023-03-01T01:12:46;17.40;;;11.23;;
4794;SDS011;2411;47.060;15.064;2023-03-01T01:15:13;13.50;;;10.53;;
4794;SDS011;2411;47.060;15.064;2023-03-01T01:17:43;18.57;;;11.43;;
4794;SDS011;2411;47.060;15.064;2023-03-01T01:20:10;16.00;;;11.37;;
4794;SDS011;2411;47.060;15.064;2023-03-01T01:22:38;19.10;;;11.87;;
4794;SDS011;2411;47.060;15.064;2023-03-01T01:25:05;17.13;;;10.83;;
4794;SDS011;2411;47.060;15.064;2023-03-01T01:27:32;17.30;;;11.40;;
4794;SDS011;2411;47.060;15.064;2023-03-01T01:30:00;18.53;;;12.20;;
4794;SDS011;2411;47.060;15.064;2023-03-01T01:32:27;14.50;;;10.77;;
4794;SDS011;2411;47.060;15.064;2023-03-01T01:34:54;16.33;;;11.00;;
4794;SDS011;2411;47.060;15.064;2023-03-01T01:37:21;14.90;;;10.70;;
4794;SDS011;2411;47.060;15.064;2023-03-01T01:39:48;16.50;;;11.27;;
4794;SDS011;2411;47.060;15.064;2023-03-01T01:42:16;15.90;;;10.53;;
4794;SDS011;2411;47.060;15.064;2023-03-01T01:44:45;17.23;;;11.33;;
4794;SDS011;2411;47.060;15.064;2023-03-01T01:47:17;15.40;;;10.43;;
4794;SDS011;2411;47.060;15.064;2023-03-01T01:49:55;14.17;;;9.93;;
4794;SDS011;2411;47.060;15.064;2023-03-01T01:52:24;13.80;;;9.90;;
4794;SDS011;2411;47.060;15.064;2023-03-01T01:54:57;12.53;;;10.10;;
4794;SDS011;2411;47.060;15.064;2023-03-01T01:57:32;17.20;;;11.73;;
4794;SDS011;2411;47.060;15.064;2023-03-01T02:00:20;13.77;;;10.37;;
4794;SDS011;2411;47.060;15.064;2023-03-01T02:02:49;13.57;;;9.53;;
4794;SDS011;2411;47.060;15.064;2023-03-01T02:05:26;12.50;;;8.87;;
4794;SDS011;2411;47.060;15.064;2023-03-01T02:07:55;15.90;;;10.40;;
4794;SDS011;2411;47.060;15.064;2023-03-01T02:10:24;17.70;;;9.77;;
4794;SDS011;2411;47.060;15.064;2023-03-01T02:12:53;15.10;;;10.60;;
4794;SDS011;2411;47.060;15.064;2023-03-01T02:15:20;15.40;;;10.20;;
4794;SDS011;2411;47.060;15.064;2023-03-01T02:17:49;21.73;;;11.27;;
4794;SDS011;2411;47.060;15.064;2023-03-01T02:22:44;13.80;;;10.80;;
4794;SDS011;2411;47.060;15.064;2023-03-01T02:25:21;16.77;;;11.27;;
4794;SDS011;2411;47.060;15.064;2023-03-01T02:27:59;17.70;;;11.07;;
4794;SDS011;2411;47.060;15.064;2023-03-01T02:30:30;13.00;;;10.67;;
4794;SDS011;2411;47.060;15.064;2023-03-01T02:32:58;16.27;;;11.63;;
4794;SDS011;2411;47.060;15.064;2023-03-01T02:35:37;13.70;;;10.53;;
4794;SDS011;2411;47.060;15.064;2023-03-01T02:38:06;15.30;;;10.80;;
4794;SDS011;2411;47.060;15.064;2023-03-01T02:40:35;15.07;;;11.07;;
4794;SDS011;2411;47.060;15.064;2023-03-01T02:43:04;24.80;;;11.37;;
4794;SDS011;2411;47.060;15.064;2023-03-01T02:45:36;14.70;;;11.30;;
4794;SDS011;2411;47.060;15.064;2023-03-01T02:48:04;20.83;;;12.40;;
4794;SDS011;2411;47.060;15.064;2023-03-01T02:53:25;17.60;;;11.57;;
4794;SDS011;2411;47.060;15.064;2023-03-01T02:56:15;19.20;;;12.93;;
4794;SDS011;2411;47.060;15.064;2023-03-01T02:58:42;19.23;;;11.93;;
4794;SDS011;2411;47.060;15.064;2023-03-01T03:01:19;17.47;;;11.97;;
4794;SDS011;2411;47.060;15.064;2023-03-01T03:03:47;13.87;;;11.60;;
4794;SDS011;2411;47.060;15.064;2023-03-01T03:06:14;17.27;;;11.97;;
4794;SDS011;2411;47.060;15.064;2023-03-01T03:08:41;18.67;;;13.40;;
4794;SDS011;2411;47.060;15.064;2023-03-01T03:11:08;15.97;;;11.33;;
4794;SDS011;2411;47.060;15.064;2023-03-01T03:13:35;17.33;;;12.07;;
4794;SDS011;2411;47.060;15.064;2023-03-01T03:16:03;21.73;;;12.67;;
4794;SDS011;2411;47.060;15.064;2023-03-01T03:18:30;15.73;;;12.20;;
4794;SDS011;2411;47.060;15.064;2023-03-01T03:20:58;19.53;;;11.50;;
4794;SDS011;2411;47.060;15.064;2023-03-01T03:23:25;19.70;;;11.23;;
4794;SDS011;2411;47.060;15.064;2023-03-01T03:25:52;15.80;;;11.80;;
4794;SDS011;2411;47.060;15.064;2023-03-01T03:28:19;18.73;;;13.17;;
4794;SDS011;2411;47.060;15.064;2023-03-01T03:30:47;18.00;;;12.20;;
4794;SDS011;2411;47.060;15.064;2023-03-01T03:33:14;18.90;;;11.90;;
4794;SDS011;2411;47.060;15.064;2023-03-01T03:35:42;16.80;;;11.07;;
4794;SDS011;2411;47.060;15.064;2023-03-01T03:38:12;13.27;;;10.10;;
4794;SDS011;2411;47.060;15.064;2023-03-01T03:40:44;18.43;;;11.00;;
4794;SDS011;2411;47.060;15.064;2023-03-01T03:43:14;13.30;;;10.40;;
4794;SDS011;2411;47.060;15.064;2023-03-01T03:45:44;15.87;;;11.23;;
4794;SDS011;2411;47.060;15.064;2023-03-01T03:48:13;13.87;;;10.00;;
4794;SDS011;2411;47.060;15.064;2023-03-01T03:50:40;18.00;;;11.17;;
4794;SDS011;2411;47.060;15.064;2023-03-01T03:53:13;18.67;;;12.47;;
4794;SDS011;2411;47.060;15.064;2023-03-01T03:55:40;17.60;;;11.83;;
4794;SDS011;2411;47.060;15.064;2023-03-01T03:58:08;20.30;;;12.10;;
4794;SDS011;2411;47.060;15.064;2023-03-01T04:00:38;16.30;;;12.97;;
4794;SDS011;2411;47.060;15.064;2023-03-01T04:03:07;18.17;;;12.10;;
4794;SDS011;2411;47.060;15.064;2023-03-01T04:05:36;19.30;;;11.83;;
4794;SDS011;2411;47.060;15.064;2023-03-01T04:08:05;17.77;;;11.30;;
4794;SDS011;2411;47.060;15.064;2023-03-01T04:10:37;18.03;;;10.77;;
4794;SDS011;2411;47.060;15.064;2023-03-01T04:13:13;19.30;;;12.07;;
4794;SDS011;2411;47.060;15.064;2023-03-01T04:15:43;13.50;;;10.07;;
4794;SDS011;2411;47.060;15.064;2023-03-01T04:18:11;13.67;;;10.33;;
4794;SDS011;2411;47.060;15.064;2023-03-01T04:20:40;13.90;;;10.20;;
4794;SDS011;2411;47.060;15.064;2023-03-01T04:23:12;14.80;;;11.10;;
4794;SDS011;2411;47.060;15.064;2023-03-01T04:30:51;14.93;;;11.20;;
4794;SDS011;2411;47.060;15.064;2023-03-01T04:33:23;14.07;;;10.50;;
4794;SDS011;2411;47.060;15.064;2023-03-01T04:35:51;15.00;;;10.50;;
4794;SDS011;2411;47.060;15.064;2023-03-01T04:38:19;17.30;;;10.83;;
4794;SDS011;2411;47.060;15.064;2023-03-01T04:40:47;13.00;;;10.73;;
4794;SDS011;2411;47.060;15.064;2023-03-01T04:43:15;15.80;;;11.30;;
4794;SDS011;2411;47.060;15.064;2023-03-01T04:45:43;13.60;;;9.53;;
4794;SDS011;2411;47.060;15.064;2023-03-01T04:48:10;18.40;;;11.57;;
4794;SDS011;2411;47.060;15.064;2023-03-01T04:50:37;16.80;;;11.43;;
4794;SDS011;2411;47.060;15.064;2023-03-01T04:53:04;14.23;;;11.63;;
4794;SDS011;2411;47.060;15.064;2023-03-01T04:55:32;15.17;;;11.23;;
4794;SDS011;2411;47.060;15.064;2023-03-01T04:58:00;15.40;;;11.47;;
4794;SDS011;2411;47.060;15.064;2023-03-01T05:00:27;21.40;;;9.70;;
4794;SDS011;2411;47.060;15.064;2023-03-01T05:02:56;17.73;;;11.20;;
4794;SDS011;2411;47.060;15.064;2023-03-01T05:05:33;14.70;;;10.93;;
4794;SDS011;2411;47.060;15.064;2023-03-01T05:08:04;14.70;;;10.80;;
4794;SDS011;2411;47.060;15.064;2023-03-01T05:10:33;19.83;;;12.50;;
4794;SDS011;2411;47.060;15.064;2023-03-01T05:13:03;16.00;;;11.10;;
4794;SDS011;2411;47.060;15.064;2023-03-01T05:15:30;16.30;;;11.10;;
4794;SDS011;2411;47.060;15.064;2023-03-01T05:17:59;16.53;;;12.20;;
4794;SDS011;2411;47.060;15.064;2023-03-01T05:20:27;13.27;;;11.40;;
4794;SDS011;2411;47.060;15.064;2023-03-01T05:22:58;18.80;;;12.93;;
4794;SDS011;2411;47.060;15.064;2023-03-01T05:25:26;17.60;;;12.37;;
4794;SDS011;2411;47.060;15.064;2023-03-01T05:28:00;29.23;;;13.53;;
4794;SDS011;2411;47.060;15.064;2023-03-01T05:30:32;17.20;;;13.57;;
4794;SDS011;2411;47.060;15.064;2023-03-01T05:33:00;19.13;;;14.27;;
4794;SDS011;2411;47.060;15.064;2023-03-01T05:35:28;18.60;;;13.90;;
4794;SDS011;2411;47.060;15.064;2023-03-01T05:37:56;15.90;;;12.60;;
4794;SDS011;2411;47.060;15.064;2023-03-01T05:40:23;18.10;;;13.30;;
4794;SDS011;2411;47.060;15.064;2023-03-01T05:42:55;16.50;;;11.73;;
4794;SDS011;2411;47.060;15.064;2023-03-01T05:45:23;17.60;;;12.50;;
4794;SDS011;2411;47.060;15.064;2023-03-01T05:47:53;20.23;;;13.03;;
4794;SDS011;2411;47.060;15.064;2023-03-01T05:50:22;16.73;;;11.90;;
4794;SDS011;2411;47.060;15.064;2023-03-01T05:52:58;17.70;;;12.87;;
4794;SDS011;2411;47.060;15.064;2023-03-01T05:55:47;23.73;;;12.60;;
4794;SDS011;2411;47.060;15.064;2023-03-01T05:58:17;19.20;;;13.50;;
4794;SDS011;2411;47.060;15.064;2023-03-01T06:00:46;23.20;;;13.67;;
4794;SDS011;2411;47.060;15.064;2023-03-01T06:03:15;18.70;;;12.73;;
4794;SDS011;2411;47.060;15.064;2023-03-01T06:05:44;17.70;;;12.83;;
4794;SDS011;2411;47.060;15.064;2023-03-01T06:08:12;16.87;;;12.70;;
4794;SDS011;2411;47.060;15.064;2023-03-01T06:10:39;21.53;;;13.30;;
4794;SDS011;2411;47.060;15.064;2023-03-01T06:13:07;17.70;;;12.77;;
4794;SDS011;2411;47.060;15.064;2023-03-01T06:15:34;20.03;;;13.33;;
4794;SDS011;2411;47.060;15.064;2023-03-01T06:18:02;20.27;;;12.10;;
4794;SDS011;2411;47.060;15.064;2023-03-01T06:20:29;16.60;;;11.17;;
4794;SDS011;2411;47.060;15.064;2023-03-01T06:22:56;17.10;;;12.80;;
4794;SDS011;2411;47.060;15.064;2023-03-01T06:25:24;21.53;;;14.63;;
4794;SDS011;2411;47.060;15.064;2023-03-01T06:27:53;18.50;;;12.00;;
4794;SDS011;2411;47.060;15.064;2023-03-01T06:30:21;20.63;;;13.83;;
4794;SDS011;2411;47.060;15.064;2023-03-01T06:32:50;23.10;;;14.30;;
4794;SDS011;2411;47.060;15.064;2023-03-01T06:35:19;18.90;;;14.13;;
4794;SDS011;2411;47.060;15.064;2023-03-01T06:37:47;19.70;;;13.43;;
4794;SDS011;2411;47.060;15.064;2023-03-01T06:40:15;15.77;;;11.90;;
4794;SDS011;2411;47.060;15.064;2023-03-01T06:42:43;17.60;;;12.67;;
4794;SDS011;2411;47.060;15.064;2023-03-01T06:45:15;18.10;;;12.77;;
4794;SDS011;2411;47.060;15.064;2023-03-01T06:47:47;17.13;;;11.83;;
4794;SDS011;2411;47.060;15.064;2023-03-01T06:50:15;17.83;;;12.87;;
4794;SDS011;2411;47.060;15.064;2023-03-01T06:52:43;22.13;;;13.83;;
4794;SDS011;2411;47.060;15.064;2023-03-01T06:55:11;17.97;;;12.37;;
4794;SDS011;2411;47.060;15.064;2023-03-01T06:57:39;16.23;;;11.13;;
4794;SDS011;2411;47.060;15.064;2023-03-01T07:00:06;17.63;;;12.87;;
4794;SDS011;2411;47.060;15.064;2023-03-01T07:02:34;19.97;;;12.77;;
4794;SDS011;2411;47.060;15.064;2023-03-01T07:05:02;25.27;;;15.30;;
4794;SDS011;2411;47.060;15.064;2023-03-01T07:07:29;22.20;;;13.20;;
4794;SDS011;2411;47.060;15.064;2023-03-01T07:09:57;18.40;;;13.37;;
4794;SDS011;2411;47.060;15.064;2023-03-01T07:12:24;18.60;;;13.10;;
4794;SDS011;2411;47.060;15.064;2023-03-01T07:14:51;19.77;;;13.77;;
4794;SDS011;2411;47.060;15.064;2023-03-01T07:17:19;21.83;;;14.07;;
4794;SDS011;2411;47.060;15.064;2023-03-01T07:19:46;18.30;;;13.20;;
4794;SDS011;2411;47.060;15.064;2023-03-01T07:22:13;20.43;;;14.27;;
4794;SDS011;2411;47.060;15.064;2023-03-01T07:24:42;20.30;;;13.33;;
4794;SDS011;2411;47.060;15.064;2023-03-01T07:27:09;20.03;;;13.13;;
4794;SDS011;2411;47.060;15.064;2023-03-01T07:29:37;21.47;;;13.10;;
4794;SDS011;2411;47.060;15.064;2023-03-01T07:32:05;17.37;;;13.40;;
4794;SDS011;2411;47.060;15.064;2023-03-01T07:34:32;18.03;;;12.53;;
4794;SDS011;2411;47.060;15.064;2023-03-01T07:37:00;16.67;;;12.17;;
4794;SDS011;2411;47.060;15.064;2023-03-01T07:39:27;21.37;;;12.90;;
4794;SDS011;2411;47.060;15.064;2023-03-01T07:41:54;30.60;;;11.63;;
4794;SDS011;2411;47.060;15.064;2023-03-01T07:44:21;16.87;;;11.97;;
4794;SDS011;2411;47.060;15.064;2023-03-01T07:46:49;30.60;;;14.30;;
4794;SDS011;2411;47.060;15.064;2023-03-01T07:49:16;19.10;;;12.20;;
4794;SDS011;2411;47.060;15.064;2023-03-01T07:51:43;16.37;;;11.97;;
4794;SDS011;2411;47.060;15.064;2023-03-01T07:54:11;15.40;;;10.80;;
4794;SDS011;2411;47.060;15.064;2023-03-01T07:56:38;19.43;;;12.57;;
4794;SDS011;2411;47.060;15.064;2023-03-01T07:59:07;15.00;;;11.17;;
4794;SDS011;2411;47.060;15.064;2023-03-01T08:01:34;15.67;;;11.70;;
4794;SDS011;2411;47.060;15.064;2023-03-01T08:04:01;13.53;;;11.60;;
4794;SDS011;2411;47.060;15.064;2023-03-01T08:06:29;19.60;;;11.40;;
4794;SDS011;2411;47.060;15.064;2023-03-01T08:08:56;13.20;;;10.50;;
4794;SDS011;2411;47.060;15.064;2023-03-01T08:11:24;14.07;;;10.43;;
4794;SDS011;2411;47.060;15.064;2023-03-01T08:13:54;12.90;;;9.77;;
4794;SDS011;2411;47.060;15.064;2023-03-01T08:16:23;12.23;;;10.30;;
4794;SDS011;2411;47.060;15.064;2023-03-01T08:18:50;12.47;;;8.63;;
4794;SDS011;2411;47.060;15.064;2023-03-01T08:21:18;10.10;;;8.60;;
4794;SDS011;2411;47.060;15.064;2023-03-01T08:23:45;13.90;;;9.70;;
4794;SDS011;2411;47.060;15.064;2023-03-01T08:26:14;12.60;;;8.97;;
4794;SDS011;2411;47.060;15.064;2023-03-01T08:28:45;9.57;;;8.60;;
4794;SDS011;2411;47.060;15.064;2023-03-01T08:31:22;10.17;;;8.63;;
4794;SDS011;2411;47.060;15.064;2023-03-01T08:33:56;10.93;;;7.10;;
4794;SDS011;2411;47.060;15.064;2023-03-01T08:36:30;12.37;;;8.77;;
4794;SDS011;2411;47.060;15.064;2023-03-01T08:39:05;11.50;;;8.40;;
4794;SDS011;2411;47.060;15.064;2023-03-01T08:41:33;9.83;;;8.20;;
4794;SDS011;2411;47.060;15.064;2023-03-01T08:44:01;11.90;;;9.20;;
4794;SDS011;2411;47.060;15.064;2023-03-01T08:46:29;14.93;;;8.50;;
4794;SDS011;2411;47.060;15.064;2023-03-01T08:49:20;10.50;;;8.33;;
4794;SDS011;2411;47.060;15.064;2023-03-01T08:51:48;10.67;;;7.80;;
4794;SDS011;2411;47.060;15.064;2023-03-01T08:54:16;10.57;;;8.53;;
4794;SDS011;2411;47.060;15.064;2023-03-01T08:56:45;10.83;;;8.80;;
4794;SDS011;2411;47.060;15.064;2023-03-01T08:59:13;10.47;;;8.80;;
4794;SDS011;2411;47.060;15.064;2023-03-01T09:01:42;11.40;;;8.37;;
4794;SDS011;2411;47.060;15.064;2023-03-01T09:04:12;9.10;;;8.17;;
4794;SDS011;2411;47.060;15.064;2023-03-01T09:06:41;9.67;;;8.47;;
4794;SDS011;2411;47.060;15.064;2023-03-01T09:09:15;11.87;;;8.77;;
4794;SDS011;2411;47.060;15.064;2023-03-01T09:11:44;10.80;;;8.50;;
4794;SDS011;2411;47.060;15.064;2023-03-01T09:14:16;12.93;;;8.07;;
4794;SDS011;2411;47.060;15.064;2023-03-01T09:16:44;13.17;;;8.20;;
4794;SDS011;2411;47.060;15.064;2023-03-01T09:19:11;11.33;;;8.30;;
4794;SDS011;2411;47.060;15.064;2023-03-01T09:21:39;10.50;;;8.23;;
4794;SDS011;2411;47.060;15.064;2023-03-01T09:24:11;10.23;;;9.13;;
4794;SDS011;2411;47.060;15.064;2023-03-01T09:26:41;9.90;;;8.77;;
4794;SDS011;2411;47.060;15.064;2023-03-01T09:29:08;10.87;;;9.40;;
4794;SDS011;2411;47.060;15.064;2023-03-01T09:31:36;10.47;;;8.57;;
4794;SDS011;2411;47.060;15.064;2023-03-01T09:34:03;11.00;;;8.63;;
4794;SDS011;2411;47.060;15.064;2023-03-01T09:36:31;10.60;;;8.77;;
4794;SDS011;2411;47.060;15.064;2023-03-01T09:39:00;12.30;;;8.10;;
4794;SDS011;2411;47.060;15.064;2023-03-01T09:42:11;12.73;;;9.73;;
4794;SDS011;2411;47.060;15.064;2023-03-01T09:47:17;14.07;;;9.70;;
4794;SDS011;2411;47.060;15.064;2023-03-01T09:49:54;11.07;;;8.80;;
4794;SDS011;2411;47.060;15.064;2023-03-01T09:52:38;10.77;;;7.97;;
4794;SDS011;2411;47.060;15.064;2023-03-01T09:55:13;16.80;;;9.10;;
4794;SDS011;2411;47.060;15.064;2023-03-01T09:57:55;12.67;;;9.10;;
4794;SDS011;2411;47.060;15.064;2023-03-01T10:03:22;16.33;;;9.90;;
4794;SDS011;2411;47.060;15.064;2023-03-01T10:11:12;13.03;;;9.60;;
4794;SDS011;2411;47.060;15.064;2023-03-01T10:13:55;13.13;;;9.73;;
4794;SDS011;2411;47.060;15.064;2023-03-01T10:21:55;10.97;;;9.77;;
4794;SDS011;2411;47.060;15.064;2023-03-01T10:24:29;16.20;;;9.97;;
4794;SDS011;2411;47.060;15.064;2023-03-01T10:27:05;12.07;;;9.77;;
4794;SDS011;2411;47.060;15.064;2023-03-01T10:29:39;13.83;;;9.90;;
4794;SDS011;2411;47.060;15.064;2023-03-01T10:32:20;14.40;;;10.03;;
4794;SDS011;2411;47.060;15.064;2023-03-01T10:34:52;12.00;;;10.00;;
4794;SDS011;2411;47.060;15.064;2023-03-01T10:37:20;14.20;;;8.80;;
4794;SDS011;2411;47.060;15.064;2023-03-01T10:42:37;13.87;;;9.80;;
4794;SDS011;2411;47.060;15.064;2023-03-01T10:48:13;11.63;;;9.07;;
4794;SDS011;2411;47.060;15.064;2023-03-01T10:50:46;12.97;;;9.87;;
4794;SDS011;2411;47.060;15.064;2023-03-01T10:58:32;12.07;;;9.63;;
4794;SDS011;2411;47.060;15.064;2023-03-01T11:01:05;11.40;;;9.30;;
4794;SDS011;2411;47.060;15.064;2023-03-01T11:03:42;12.40;;;9.17;;
4794;SDS011;2411;47.060;15.064;2023-03-01T11:13:55;13.83;;;10.00;;
4794;SDS011;2411;47.060;15.064;2023-03-01T11:19:38;15.73;;;10.27;;
4794;SDS011;2411;47.060;15.064;2023-03-01T11:22:07;13.90;;;10.40;;
4794;SDS011;2411;47.060;15.064;2023-03-01T11:24:48;17.13;;;10.70;;
4794;SDS011;2411;47.060;15.064;2023-03-01T11:27:36;13.20;;;10.00;;
4794;SDS011;2411;47.060;15.064;2023-03-01T11:30:12;14.63;;;10.20;;
4794;SDS011;2411;47.060;15.064;2023-03-01T11:33:34;15.47;;;10.10;;
4794;SDS011;2411;47.060;15.064;2023-03-01T11:35:35;13.20;;;10.80;;
4794;SDS011;2411;47.060;15.064;2023-03-01T11:38:15;14.20;;;10.37;;
4794;SDS011;2411;47.060;15.064;2023-03-01T11:40:58;11.73;;;8.57;;
4794;SDS011;2411;47.060;15.064;2023-03-01T11:43:43;11.77;;;8.73;;
4794;SDS011;2411;47.060;15.064;2023-03-01T11:52:15;12.50;;;9.50;;
4794;SDS011;2411;47.060;15.064;2023-03-01T12:06:08;14.80;;;9.17;;
4794;SDS011;2411;47.060;15.064;2023-03-01T12:20:18;11.60;;;8.97;;
4794;SDS011;2411;47.060;15.064;2023-03-01T12:23:13;13.27;;;8.83;;
4794;SDS011;2411;47.060;15.064;2023-03-01T12:26:06;14.03;;;8.73;;
4794;SDS011;2411;47.060;15.064;2023-03-01T12:32:05;19.63;;;9.50;;
4794;SDS011;2411;47.060;15.064;2023-03-01T12:35:31;19.40;;;9.60;;
4794;SDS011;2411;47.060;15.064;2023-03-01T12:44:24;13.60;;;10.27;;
4794;SDS011;2411;47.060;15.064;2023-03-01T12:49:39;15.77;;;10.73;;
4794;SDS011;2411;47.060;15.064;2023-03-01T12:52:19;14.07;;;10.30;;
4794;SDS011;2411;47.060;15.064;2023-03-01T12:54:56;13.83;;;10.50;;
4794;SDS011;2411;47.060;15.064;2023-03-01T12:57:30;14.80;;;10.43;;
4794;SDS011;2411;47.060;15.064;2023-03-01T13:00:10;12.60;;;10.03;;
4794;SDS011;2411;47.060;15.064;2023-03-01T13:03:00;13.70;;;9.60;;
4794;SDS011;2411;47.060;15.064;2023-03-01T13:06:00;17.50;;;10.60;;
4794;SDS011;2411;47.060;15.064;2023-03-01T13:08:42;15.83;;;10.37;;
4794;SDS011;2411;47.060;15.064;2023-03-01T13:11:20;13.27;;;11.03;;
4794;SDS011;2411;47.060;15.064;2023-03-01T13:13:48;17.50;;;10.07;;
4794;SDS011;2411;47.060;15.064;2023-03-01T13:19:12;14.57;;;10.73;;
4794;SDS011;2411;47.060;15.064;2023-03-01T13:21:55;16.17;;;11.07;;
4794;SDS011;2411;47.060;15.064;2023-03-01T13:24:27;12.33;;;9.70;;
4794;SDS011;2411;47.060;15.064;2023-03-01T13:32:35;14.03;;;10.80;;
4794;SDS011;2411;47.060;15.064;2023-03-01T13:37:41;15.40;;;10.33;;
4794;SDS011;2411;47.060;15.064;2023-03-01T13:45:36;13.30;;;10.03;;
4794;SDS011;2411;47.060;15.064;2023-03-01T13:48:18;16.93;;;11.20;;
4794;SDS011;2411;47.060;15.064;2023-03-01T13:50:51;16.90;;;11.50;;
4794;SDS011;2411;47.060;15.064;2023-03-01T13:53:22;13.23;;;9.37;;
4794;SDS011;2411;47.060;15.064;2023-03-01T13:55:58;16.63;;;10.43;;
4794;SDS011;2411;47.060;15.064;2023-03-01T13:58:30;12.80;;;9.30;;
4794;SDS011;2411;47.060;15.064;2023-03-01T14:01:00;14.43;;;10.13;;
4794;SDS011;2411;47.060;15.064;2023-03-01T14:03:32;13.03;;;9.80;;
4794;SDS011;2411;47.060;15.064;2023-03-01T14:06:05;25.63;;;11.47;;
4794;SDS011;2411;47.060;15.064;2023-03-01T14:08:44;13.97;;;9.27;;
4794;SDS011;2411;47.060;15.064;2023-03-01T14:19:32;13.30;;;9.27;;
4794;SDS011;2411;47.060;15.064;2023-03-01T14:24:53;21.83;;;10.40;;
4794;SDS011;2411;47.060;15.064;2023-03-01T14:27:27;12.80;;;9.40;;
4794;SDS011;2411;47.060;15.064;2023-03-01T14:32:53;12.27;;;9.73;;
4794;SDS011;2411;47.060;15.064;2023-03-01T14:35:26;14.13;;;9.30;;
4794;SDS011;2411;47.060;15.064;2023-03-01T14:37:56;13.83;;;10.00;;
4794;SDS011;2411;47.060;15.064;2023-03-01T14:42:57;15.27;;;9.37;;
4794;SDS011;2411;47.060;15.064;2023-03-01T14:45:27;16.00;;;10.10;;
4794;SDS011;2411;47.060;15.064;2023-03-01T14:48:01;12.97;;;9.67;;
4794;SDS011;2411;47.060;15.064;2023-03-01T14:50:31;12.83;;;9.83;;
4794;SDS011;2411;47.060;15.064;2023-03-01T14:53:02;12.67;;;10.10;;
4794;SDS011;2411;47.060;15.064;2023-03-01T14:55:41;11.97;;;8.87;;
4794;SDS011;2411;47.060;15.064;2023-03-01T14:58:13;10.93;;;7.67;;
4794;SDS011;2411;47.060;15.064;2023-03-01T15:00:47;13.53;;;9.13;;
4794;SDS011;2411;47.060;15.064;2023-03-01T15:03:24;12.30;;;8.73;;
4794;SDS011;2411;47.060;15.064;2023-03-01T15:06:08;11.80;;;8.43;;
4794;SDS011;2411;47.060;15.064;2023-03-01T15:08:41;10.37;;;8.00;;
4794;SDS011;2411;47.060;15.064;2023-03-01T15:11:27;10.27;;;7.37;;
4794;SDS011;2411;47.060;15.064;2023-03-01T15:13:56;10.93;;;7.13;;
4794;SDS011;2411;47.060;15.064;2023-03-01T15:16:32;8.23;;;6.20;;
4794;SDS011;2411;47.060;15.064;2023-03-01T15:19:04;7.50;;;6.70;;
4794;SDS011;2411;47.060;15.064;2023-03-01T15:21:34;8.67;;;6.53;;
4794;SDS011;2411;47.060;15.064;2023-03-01T15:26:39;5.00;;;4.60;;
4794;SDS011;2411;47.060;15.064;2023-03-01T15:29:16;6.80;;;5.27;;
4794;SDS011;2411;47.060;15.064;2023-03-01T15:34:36;5.63;;;4.77;;
4794;SDS011;2411;47.060;15.064;2023-03-01T15:37:05;7.77;;;5.33;;
4794;SDS011;2411;47.060;15.064;2023-03-01T15:39:55;7.60;;;5.90;;
4794;SDS011;2411;47.060;15.064;2023-03-01T15:47:58;11.90;;;6.50;;
4794;SDS011;2411;47.060;15.064;2023-03-01T15:52:58;8.50;;;7.30;;
4794;SDS011;2411;47.060;15.064;2023-03-01T15:55:28;8.27;;;6.73;;
4794;SDS011;2411;47.060;15.064;2023-03-01T15:58:08;10.73;;;7.10;;
4794;SDS011;2411;47.060;15.064;2023-03-01T16:00:39;10.50;;;6.27;;
4794;SDS011;2411;47.060;15.064;2023-03-01T16:03:23;11.57;;;7.90;;
4794;SDS011;2411;47.060;15.064;2023-03-01T16:05:51;8.83;;;6.87;;
4794;SDS011;2411;47.060;15.064;2023-03-01T16:08:18;7.70;;;7.00;;
4794;SDS011;2411;47.060;15.064;2023-03-01T16:10:46;7.20;;;6.27;;
4794;SDS011;2411;47.060;15.064;2023-03-01T16:13:16;7.20;;;6.23;;
4794;SDS011;2411;47.060;15.064;2023-03-01T16:15:44;7.93;;;6.47;;
4794;SDS011;2411;47.060;15.064;2023-03-01T16:18:11;9.40;;;6.47;;
4794;SDS011;2411;47.060;15.064;2023-03-01T16:20:39;8.10;;;6.40;;
4794;SDS011;2411;47.060;15.064;2023-03-01T16:23:07;9.40;;;7.50;;
4794;SDS011;2411;47.060;15.064;2023-03-01T16:25:37;9.07;;;6.90;;
4794;SDS011;2411;47.060;15.064;2023-03-01T16:28:04;7.77;;;6.53;;
4794;SDS011;2411;47.060;15.064;2023-03-01T16:30:39;13.50;;;6.70;;
4794;SDS011;2411;47.060;15.064;2023-03-01T16:33:07;10.53;;;7.53;;
4794;SDS011;2411;47.060;15.064;2023-03-01T16:35:55;9.33;;;6.83;;
4794;SDS011;2411;47.060;15.064;2023-03-01T16:38:22;11.80;;;6.63;;
4794;SDS011;2411;47.060;15.064;2023-03-01T16:40:50;7.80;;;6.77;;
4794;SDS011;2411;47.060;15.064;2023-03-01T16:43:18;7.20;;;5.97;;
4794;SDS011;2411;47.060;15.064;2023-03-01T16:45:45;6.77;;;6.00;;
4794;SDS011;2411;47.060;15.064;2023-03-01T16:48:13;9.20;;;6.03;;
4794;SDS011;2411;47.060;15.064;2023-03-01T16:50:40;7.10;;;6.23;;
4794;SDS011;2411;47.060;15.064;2023-03-01T16:53:08;9.20;;;5.73;;
4794;SDS011;2411;47.060;15.064;2023-03-01T16:55:36;10.20;;;6.23;;
4794;SDS011;2411;47.060;15.064;2023-03-01T16:58:04;10.03;;;5.90;;
4794;SDS011;2411;47.060;15.064;2023-03-01T17:00:32;6.47;;;5.30;;
4794;SDS011;2411;47.060;15.064;2023-03-01T17:02:59;8.63;;;5.73;;
4794;SDS011;2411;47.060;15.064;2023-03-01T17:05:27;8.43;;;5.80;;
4794;SDS011;2411;47.060;15.064;2023-03-01T17:07:54;9.90;;;6.17;;
4794;SDS011;2411;47.060;15.064;2023-03-01T17:10:23;7.40;;;6.27;;
4794;SDS011;2411;47.060;15.064;2023-03-01T17:12:50;7.50;;;6.70;;
4794;SDS011;2411;47.060;15.064;2023-03-01T17:15:18;7.63;;;5.60;;
4794;SDS011;2411;47.060;15.064;2023-03-01T17:17:45;6.80;;;6.20;;
4794;SDS011;2411;47.060;15.064;2023-03-01T17:20:35;8.07;;;6.20;;
4794;SDS011;2411;47.060;15.064;2023-03-01T17:23:02;7.90;;;5.60;;